sensor_id;sensor_type;location;lat;lon;timestamp;P1;durP1;ratioP1;P2;durP2;ratioP2
76892;SDS011;65854;51.466;7.260;2022-12-22T00:01:55;7.72;;;3.33;;
76892;SDS011;65854;51.466;7.260;2022-12-22T00:04:41;8.15;;;3.60;;
76892;SDS011;65854;51.466;7.260;2022-12-22T00:07:27;7.00;;;3.30;;
76892;SDS011;65854;51.466;7.260;2022-12-22T00:10:11;6.37;;;3.00;;
76892;SDS011;65854;51.466;7.260;2022-12-22T00:12:55;6.82;;;3.35;;
76892;SDS011;65854;51.466;7.260;2022-12-22T00:15:39;8.02;;;3.47;;
76892;SDS011;65854;51.466;7.260;2022-12-22T00:18:23;8.25;;;3.40;;
76892;SDS011;65854;51.466;7.260;2022-12-22T00:21:10;7.65;;;3.10;;
76892;SDS011;65854;51.466;7.260;2022-12-22T00:23:55;7.83;;;2.97;;
76892;SDS011;65854;51.466;7.260;2022-12-22T00:26:39;6.30;;;3.00;;
76892;SDS011;65854;51.466;7.260;2022-12-22T00:29:24;7.55;;;3.30;;
76892;SDS011;65854;51.466;7.260;2022-12-22T00:32:14;6.20;;;3.13;;
76892;SDS011;65854;51.466;7.260;2022-12-22T00:34:58;6.97;;;2.95;;
76892;SDS011;65854;51.466;7.260;2022-12-22T00:37:42;12.97;;;3.57;;
76892;SDS011;65854;51.466;7.260;2022-12-22T00:40:27;7.32;;;3.08;;
76892;SDS011;65854;51.466;7.260;2022-12-22T00:43:11;6.50;;;3.05;;
76892;SDS011;65854;51.466;7.260;2022-12-22T00:45:56;6.57;;;3.05;;
76892;SDS011;65854;51.466;7.260;2022-12-22T00:48:42;9.27;;;3.17;;
76892;SDS011;65854;51.466;7.260;2022-12-22T00:51:27;5.53;;;2.60;;
76892;SDS011;65854;51.466;7.260;2022-12-22T00:54:12;5.88;;;2.97;;
76892;SDS011;65854;51.466;7.260;2022-12-22T00:56:58;7.93;;;2.90;;
76892;SDS011;65854;51.466;7.260;2022-12-22T00:59:44;8.70;;;3.65;;
76892;SDS011;65854;51.466;7.260;2022-12-22T01:02:29;8.15;;;3.30;;
76892;SDS011;65854;51.466;7.260;2022-12-22T01:05:05;6.97;;;3.27;;
76892;SDS011;65854;51.466;7.260;2022-12-22T01:07:49;8.57;;;3.60;;
76892;SDS011;65854;51.466;7.260;2022-12-22T01:10:33;8.00;;;3.65;;
76892;SDS011;65854;51.466;7.260;2022-12-22T01:13:17;7.78;;;3.60;;
76892;SDS011;65854;51.466;7.260;2022-12-22T01:16:01;9.90;;;3.88;;
76892;SDS011;65854;51.466;7.260;2022-12-22T01:18:45;8.43;;;3.27;;
76892;SDS011;65854;51.466;7.260;2022-12-22T01:21:29;8.10;;;3.53;;
76892;SDS011;65854;51.466;7.260;2022-12-22T01:24:14;7.55;;;3.30;;
76892;SDS011;65854;51.466;7.260;2022-12-22T01:27:00;7.85;;;3.60;;
76892;SDS011;65854;51.466;7.260;2022-12-22T01:29:45;7.68;;;3.30;;
76892;SDS011;65854;51.466;7.260;2022-12-22T01:32:29;6.90;;;2.90;;
76892;SDS011;65854;51.466;7.260;2022-12-22T01:35:16;7.15;;;3.22;;
76892;SDS011;65854;51.466;7.260;2022-12-22T01:38:05;7.30;;;2.90;;
76892;SDS011;65854;51.466;7.260;2022-12-22T01:40:50;6.80;;;2.97;;
76892;SDS011;65854;51.466;7.260;2022-12-22T01:43:39;6.85;;;2.95;;
76892;SDS011;65854;51.466;7.260;2022-12-22T01:49:16;6.20;;;2.60;;
76892;SDS011;65854;51.466;7.260;2022-12-22T01:52:04;6.65;;;2.50;;
76892;SDS011;65854;51.466;7.260;2022-12-22T01:54:50;6.75;;;2.22;;
76892;SDS011;65854;51.466;7.260;2022-12-22T01:57:35;6.53;;;2.35;;
76892;SDS011;65854;51.466;7.260;2022-12-22T02:00:20;6.07;;;2.50;;
76892;SDS011;65854;51.466;7.260;2022-12-22T02:03:13;8.55;;;4.10;;
76892;SDS011;65854;51.466;7.260;2022-12-22T02:09:18;7.82;;;4.18;;
76892;SDS011;65854;51.466;7.260;2022-12-22T02:12:23;9.05;;;3.53;;
76892;SDS011;65854;51.466;7.260;2022-12-22T02:15:50;7.57;;;3.13;;
76892;SDS011;65854;51.466;7.260;2022-12-22T02:18:53;6.50;;;2.67;;
76892;SDS011;65854;51.466;7.260;2022-12-22T02:21:55;5.97;;;2.10;;
76892;SDS011;65854;51.466;7.260;2022-12-22T02:25:13;4.70;;;1.60;;
76892;SDS011;65854;51.466;7.260;2022-12-22T02:28:01;8.18;;;1.83;;
76892;SDS011;65854;51.466;7.260;2022-12-22T02:30:47;8.83;;;1.80;;
76892;SDS011;65854;51.466;7.260;2022-12-22T02:33:33;5.68;;;1.70;;
76892;SDS011;65854;51.466;7.260;2022-12-22T02:36:19;10.70;;;1.88;;
76892;SDS011;65854;51.466;7.260;2022-12-22T02:39:37;6.75;;;1.70;;
76892;SDS011;65854;51.466;7.260;2022-12-22T02:42:34;5.97;;;1.80;;
76892;SDS011;65854;51.466;7.260;2022-12-22T02:48:41;6.65;;;1.70;;
76892;SDS011;65854;51.466;7.260;2022-12-22T02:51:31;5.47;;;1.60;;
76892;SDS011;65854;51.466;7.260;2022-12-22T02:54:20;4.93;;;1.60;;
76892;SDS011;65854;51.466;7.260;2022-12-22T02:57:06;4.80;;;1.50;;
76892;SDS011;65854;51.466;7.260;2022-12-22T02:59:50;6.07;;;1.83;;
76892;SDS011;65854;51.466;7.260;2022-12-22T03:02:34;5.03;;;1.58;;
76892;SDS011;65854;51.466;7.260;2022-12-22T03:05:18;6.43;;;1.73;;
76892;SDS011;65854;51.466;7.260;2022-12-22T03:08:02;7.43;;;1.77;;
76892;SDS011;65854;51.466;7.260;2022-12-22T03:10:47;6.07;;;1.58;;
76892;SDS011;65854;51.466;7.260;2022-12-22T03:13:31;5.53;;;1.80;;
76892;SDS011;65854;51.466;7.260;2022-12-22T03:16:15;5.95;;;1.63;;
76892;SDS011;65854;51.466;7.260;2022-12-22T03:18:59;6.15;;;1.80;;
76892;SDS011;65854;51.466;7.260;2022-12-22T03:21:43;6.60;;;2.33;;
76892;SDS011;65854;51.466;7.260;2022-12-22T03:24:27;7.10;;;3.05;;
76892;SDS011;65854;51.466;7.260;2022-12-22T03:27:11;6.60;;;2.80;;
76892;SDS011;65854;51.466;7.260;2022-12-22T03:29:37;8.73;;;4.03;;
76892;SDS011;65854;51.466;7.260;2022-12-22T03:32:02;5.97;;;2.57;;
76892;SDS011;65854;51.466;7.260;2022-12-22T03:34:28;6.53;;;2.63;;
76892;SDS011;65854;51.466;7.260;2022-12-22T03:36:54;5.63;;;2.30;;
76892;SDS011;65854;51.466;7.260;2022-12-22T03:39:19;6.73;;;2.10;;
76892;SDS011;65854;51.466;7.260;2022-12-22T03:41:45;4.37;;;1.50;;
76892;SDS011;65854;51.466;7.260;2022-12-22T03:44:29;4.60;;;1.38;;
76892;SDS011;65854;51.466;7.260;2022-12-22T03:47:13;3.15;;;1.20;;
76892;SDS011;65854;51.466;7.260;2022-12-22T03:49:38;6.20;;;1.50;;
76892;SDS011;65854;51.466;7.260;2022-12-22T03:52:04;3.78;;;1.40;;
76892;SDS011;65854;51.466;7.260;2022-12-22T03:54:29;3.90;;;1.20;;
76892;SDS011;65854;51.466;7.260;2022-12-22T03:56:55;3.90;;;1.40;;
76892;SDS011;65854;51.466;7.260;2022-12-22T03:59:21;4.05;;;1.30;;
76892;SDS011;65854;51.466;7.260;2022-12-22T04:01:52;5.40;;;1.30;;
76892;SDS011;65854;51.466;7.260;2022-12-22T04:04:19;3.53;;;1.10;;
76892;SDS011;65854;51.466;7.260;2022-12-22T04:06:48;3.38;;;1.10;;
76892;SDS011;65854;51.466;7.260;2022-12-22T04:09:14;3.97;;;1.20;;
76892;SDS011;65854;51.466;7.260;2022-12-22T04:11:40;6.50;;;1.20;;
76892;SDS011;65854;51.466;7.260;2022-12-22T04:14:24;5.38;;;1.30;;
76892;SDS011;65854;51.466;7.260;2022-12-22T04:16:49;4.00;;;1.43;;
76892;SDS011;65854;51.466;7.260;2022-12-22T04:19:15;4.63;;;1.30;;
76892;SDS011;65854;51.466;7.260;2022-12-22T04:21:41;3.90;;;1.33;;
76892;SDS011;65854;51.466;7.260;2022-12-22T04:24:07;3.80;;;1.30;;
76892;SDS011;65854;51.466;7.260;2022-12-22T04:26:34;4.57;;;1.40;;
76892;SDS011;65854;51.466;7.260;2022-12-22T04:29:00;4.47;;;1.30;;
76892;SDS011;65854;51.466;7.260;2022-12-22T04:31:26;3.97;;;1.47;;
76892;SDS011;65854;51.466;7.260;2022-12-22T04:33:51;4.30;;;1.40;;
76892;SDS011;65854;51.466;7.260;2022-12-22T04:36:17;7.77;;;1.53;;
76892;SDS011;65854;51.466;7.260;2022-12-22T04:38:43;5.60;;;2.05;;
76892;SDS011;65854;51.466;7.260;2022-12-22T04:41:09;6.50;;;2.00;;
76892;SDS011;65854;51.466;7.260;2022-12-22T04:43:35;4.33;;;1.60;;
76892;SDS011;65854;51.466;7.260;2022-12-22T04:46:01;4.70;;;1.45;;
76892;SDS011;65854;51.466;7.260;2022-12-22T04:48:27;5.10;;;1.80;;
76892;SDS011;65854;51.466;7.260;2022-12-22T04:50:54;4.60;;;1.55;;
76892;SDS011;65854;51.466;7.260;2022-12-22T04:53:22;3.92;;;1.38;;
76892;SDS011;65854;51.466;7.260;2022-12-22T04:55:49;5.63;;;1.40;;
76892;SDS011;65854;51.466;7.260;2022-12-22T04:58:18;3.35;;;1.10;;
76892;SDS011;65854;51.466;7.260;2022-12-22T05:00:43;3.07;;;1.00;;
76892;SDS011;65854;51.466;7.260;2022-12-22T05:03:09;3.70;;;1.20;;
76892;SDS011;65854;51.466;7.260;2022-12-22T05:05:35;3.55;;;1.10;;
76892;SDS011;65854;51.466;7.260;2022-12-22T05:08:01;3.33;;;1.02;;
76892;SDS011;65854;51.466;7.260;2022-12-22T05:10:27;3.50;;;1.10;;
76892;SDS011;65854;51.466;7.260;2022-12-22T05:12:52;3.00;;;0.90;;
76892;SDS011;65854;51.466;7.260;2022-12-22T05:15:24;2.20;;;0.80;;
76892;SDS011;65854;51.466;7.260;2022-12-22T05:17:51;3.60;;;0.95;;
76892;SDS011;65854;51.466;7.260;2022-12-22T05:20:18;3.22;;;0.95;;
76892;SDS011;65854;51.466;7.260;2022-12-22T05:22:44;3.60;;;1.10;;
76892;SDS011;65854;51.466;7.260;2022-12-22T05:25:10;3.65;;;0.80;;
76892;SDS011;65854;51.466;7.260;2022-12-22T05:27:35;3.25;;;0.90;;
76892;SDS011;65854;51.466;7.260;2022-12-22T05:30:01;3.20;;;0.90;;
76892;SDS011;65854;51.466;7.260;2022-12-22T05:32:27;3.00;;;1.05;;
76892;SDS011;65854;51.466;7.260;2022-12-22T05:34:56;3.50;;;1.10;;
76892;SDS011;65854;51.466;7.260;2022-12-22T05:37:21;3.70;;;1.10;;
76892;SDS011;65854;51.466;7.260;2022-12-22T05:39:47;4.28;;;0.90;;
76892;SDS011;65854;51.466;7.260;2022-12-22T05:42:12;3.97;;;1.00;;
76892;SDS011;65854;51.466;7.260;2022-12-22T05:44:38;3.43;;;1.07;;
76892;SDS011;65854;51.466;7.260;2022-12-22T05:47:03;2.67;;;0.90;;
76892;SDS011;65854;51.466;7.260;2022-12-22T05:49:29;4.45;;;1.20;;
76892;SDS011;65854;51.466;7.260;2022-12-22T05:51:54;4.00;;;1.07;;
76892;SDS011;65854;51.466;7.260;2022-12-22T05:54:20;3.63;;;1.00;;
76892;SDS011;65854;51.466;7.260;2022-12-22T05:56:46;3.70;;;1.00;;
76892;SDS011;65854;51.466;7.260;2022-12-22T05:59:11;3.43;;;1.00;;
76892;SDS011;65854;51.466;7.260;2022-12-22T06:01:37;5.60;;;1.05;;
76892;SDS011;65854;51.466;7.260;2022-12-22T06:04:02;4.17;;;0.93;;
76892;SDS011;65854;51.466;7.260;2022-12-22T06:06:28;5.88;;;1.27;;
76892;SDS011;65854;51.466;7.260;2022-12-22T06:08:54;5.13;;;1.43;;
76892;SDS011;65854;51.466;7.260;2022-12-22T06:11:19;5.78;;;1.33;;
76892;SDS011;65854;51.466;7.260;2022-12-22T06:13:45;5.93;;;1.30;;
76892;SDS011;65854;51.466;7.260;2022-12-22T06:16:11;5.50;;;1.50;;
76892;SDS011;65854;51.466;7.260;2022-12-22T06:18:36;5.30;;;1.60;;
76892;SDS011;65854;51.466;7.260;2022-12-22T06:21:02;6.07;;;2.03;;
76892;SDS011;65854;51.466;7.260;2022-12-22T06:23:28;5.55;;;1.50;;
76892;SDS011;65854;51.466;7.260;2022-12-22T06:25:54;6.23;;;2.00;;
76892;SDS011;65854;51.466;7.260;2022-12-22T06:28:25;5.78;;;1.98;;
76892;SDS011;65854;51.466;7.260;2022-12-22T06:30:52;8.57;;;2.10;;
76892;SDS011;65854;51.466;7.260;2022-12-22T06:33:18;5.85;;;1.80;;
76892;SDS011;65854;51.466;7.260;2022-12-22T06:35:43;5.73;;;1.93;;
76892;SDS011;65854;51.466;7.260;2022-12-22T06:38:09;8.03;;;2.00;;
76892;SDS011;65854;51.466;7.260;2022-12-22T06:40:35;6.43;;;1.98;;
76892;SDS011;65854;51.466;7.260;2022-12-22T06:43:00;5.03;;;1.60;;
76892;SDS011;65854;51.466;7.260;2022-12-22T06:45:39;6.00;;;2.08;;
76892;SDS011;65854;51.466;7.260;2022-12-22T06:48:07;5.05;;;1.90;;
76892;SDS011;65854;51.466;7.260;2022-12-22T06:50:34;5.07;;;1.75;;
76892;SDS011;65854;51.466;7.260;2022-12-22T06:52:59;6.20;;;1.83;;
76892;SDS011;65854;51.466;7.260;2022-12-22T06:55:25;9.40;;;3.97;;
76892;SDS011;65854;51.466;7.260;2022-12-22T06:57:51;7.75;;;3.67;;
76892;SDS011;65854;51.466;7.260;2022-12-22T07:00:17;6.43;;;3.10;;
76892;SDS011;65854;51.466;7.260;2022-12-22T07:02:42;9.90;;;4.10;;
76892;SDS011;65854;51.466;7.260;2022-12-22T07:05:08;8.33;;;4.03;;
76892;SDS011;65854;51.466;7.260;2022-12-22T07:07:34;10.33;;;5.17;;
76892;SDS011;65854;51.466;7.260;2022-12-22T07:09:59;9.85;;;5.10;;
76892;SDS011;65854;51.466;7.260;2022-12-22T07:12:25;11.40;;;5.60;;
76892;SDS011;65854;51.466;7.260;2022-12-22T07:14:50;14.82;;;6.47;;
76892;SDS011;65854;51.466;7.260;2022-12-22T07:17:16;14.10;;;6.37;;
76892;SDS011;65854;51.466;7.260;2022-12-22T07:19:42;13.77;;;6.50;;
76892;SDS011;65854;51.466;7.260;2022-12-22T07:22:07;14.68;;;6.88;;
76892;SDS011;65854;51.466;7.260;2022-12-22T07:24:33;17.53;;;7.10;;
76892;SDS011;65854;51.466;7.260;2022-12-22T07:26:58;19.02;;;7.63;;
76892;SDS011;65854;51.466;7.260;2022-12-22T07:29:24;23.10;;;7.68;;
76892;SDS011;65854;51.466;7.260;2022-12-22T07:31:50;23.40;;;8.60;;
76892;SDS011;65854;51.466;7.260;2022-12-22T07:34:16;20.75;;;7.72;;
76892;SDS011;65854;51.466;7.260;2022-12-22T07:36:42;25.48;;;8.77;;
76892;SDS011;65854;51.466;7.260;2022-12-22T07:39:08;21.90;;;8.82;;
76892;SDS011;65854;51.466;7.260;2022-12-22T07:41:33;22.23;;;8.63;;
76892;SDS011;65854;51.466;7.260;2022-12-22T07:44:17;28.33;;;9.45;;
76892;SDS011;65854;51.466;7.260;2022-12-22T07:46:43;26.60;;;10.13;;
76892;SDS011;65854;51.466;7.260;2022-12-22T07:49:09;39.53;;;10.32;;
76892;SDS011;65854;51.466;7.260;2022-12-22T07:51:54;29.17;;;9.65;;
76892;SDS011;65854;51.466;7.260;2022-12-22T07:54:21;33.50;;;9.90;;
76892;SDS011;65854;51.466;7.260;2022-12-22T07:56:47;27.83;;;9.97;;
76892;SDS011;65854;51.466;7.260;2022-12-22T07:59:13;34.42;;;10.40;;
76892;SDS011;65854;51.466;7.260;2022-12-22T08:01:39;31.05;;;11.00;;
76892;SDS011;65854;51.466;7.260;2022-12-22T08:04:06;38.13;;;11.38;;
76892;SDS011;65854;51.466;7.260;2022-12-22T08:06:32;36.95;;;12.52;;
76892;SDS011;65854;51.466;7.260;2022-12-22T08:08:59;47.42;;;12.80;;
76892;SDS011;65854;51.466;7.260;2022-12-22T08:11:25;54.60;;;13.80;;
76892;SDS011;65854;51.466;7.260;2022-12-22T08:13:50;54.22;;;15.35;;
76892;SDS011;65854;51.466;7.260;2022-12-22T08:16:16;50.27;;;15.00;;
76892;SDS011;65854;51.466;7.260;2022-12-22T08:18:43;55.05;;;15.52;;
76892;SDS011;65854;51.466;7.260;2022-12-22T08:21:09;61.60;;;16.38;;
76892;SDS011;65854;51.466;7.260;2022-12-22T08:23:37;62.13;;;16.13;;
76892;SDS011;65854;51.466;7.260;2022-12-22T08:26:05;52.78;;;15.32;;
76892;SDS011;65854;51.466;7.260;2022-12-22T08:28:41;55.67;;;16.33;;
76892;SDS011;65854;51.466;7.260;2022-12-22T08:31:13;57.60;;;15.23;;
76892;SDS011;65854;51.466;7.260;2022-12-22T08:33:38;52.00;;;15.50;;
76892;SDS011;65854;51.466;7.260;2022-12-22T08:36:04;50.70;;;15.47;;
76892;SDS011;65854;51.466;7.260;2022-12-22T08:38:30;47.33;;;13.57;;
76892;SDS011;65854;51.466;7.260;2022-12-22T08:40:56;37.20;;;12.35;;
76892;SDS011;65854;51.466;7.260;2022-12-22T08:43:22;46.53;;;14.30;;
76892;SDS011;65854;51.466;7.260;2022-12-22T08:45:49;42.55;;;13.43;;
76892;SDS011;65854;51.466;7.260;2022-12-22T08:48:15;45.08;;;13.57;;
76892;SDS011;65854;51.466;7.260;2022-12-22T08:50:40;51.53;;;14.73;;
76892;SDS011;65854;51.466;7.260;2022-12-22T08:53:07;47.30;;;15.03;;
76892;SDS011;65854;51.466;7.260;2022-12-22T08:55:33;62.75;;;15.25;;
76892;SDS011;65854;51.466;7.260;2022-12-22T09:00:27;48.53;;;14.75;;
76892;SDS011;65854;51.466;7.260;2022-12-22T09:02:52;50.80;;;15.07;;
76892;SDS011;65854;51.466;7.260;2022-12-22T09:05:18;42.13;;;13.50;;
76892;SDS011;65854;51.466;7.260;2022-12-22T09:07:44;39.95;;;12.57;;
76892;SDS011;65854;51.466;7.260;2022-12-22T09:10:11;43.45;;;12.68;;
76892;SDS011;65854;51.466;7.260;2022-12-22T09:12:37;50.03;;;12.63;;
76892;SDS011;65854;51.466;7.260;2022-12-22T09:15:03;49.95;;;13.20;;
76892;SDS011;65854;51.466;7.260;2022-12-22T09:17:31;45.67;;;12.02;;
76892;SDS011;65854;51.466;7.260;2022-12-22T09:19:56;38.47;;;12.33;;
76892;SDS011;65854;51.466;7.260;2022-12-22T09:22:22;44.10;;;12.15;;
76892;SDS011;65854;51.466;7.260;2022-12-22T09:24:47;40.20;;;12.23;;
76892;SDS011;65854;51.466;7.260;2022-12-22T09:27:13;45.60;;;13.40;;
76892;SDS011;65854;51.466;7.260;2022-12-22T09:29:39;39.15;;;12.20;;
76892;SDS011;65854;51.466;7.260;2022-12-22T09:32:04;46.73;;;12.70;;
76892;SDS011;65854;51.466;7.260;2022-12-22T09:34:30;52.63;;;12.88;;
76892;SDS011;65854;51.466;7.260;2022-12-22T09:36:56;39.80;;;11.50;;
76892;SDS011;65854;51.466;7.260;2022-12-22T09:39:21;26.05;;;9.70;;
76892;SDS011;65854;51.466;7.260;2022-12-22T09:46:54;39.28;;;11.35;;
76892;SDS011;65854;51.466;7.260;2022-12-22T09:49:23;31.40;;;10.52;;
76892;SDS011;65854;51.466;7.260;2022-12-22T09:51:59;31.10;;;10.63;;
76892;SDS011;65854;51.466;7.260;2022-12-22T09:54:27;29.42;;;10.10;;
76892;SDS011;65854;51.466;7.260;2022-12-22T09:56:54;34.95;;;11.73;;
76892;SDS011;65854;51.466;7.260;2022-12-22T09:59:21;43.97;;;12.73;;
76892;SDS011;65854;51.466;7.260;2022-12-22T10:02:02;34.45;;;10.48;;
76892;SDS011;65854;51.466;7.260;2022-12-22T10:04:55;31.97;;;10.80;;
76892;SDS011;65854;51.466;7.260;2022-12-22T10:07:31;31.00;;;10.63;;
76892;SDS011;65854;51.466;7.260;2022-12-22T10:10:03;29.95;;;10.32;;
76892;SDS011;65854;51.466;7.260;2022-12-22T10:12:30;35.33;;;11.60;;
76892;SDS011;65854;51.466;7.260;2022-12-22T10:14:55;36.23;;;11.87;;
76892;SDS011;65854;51.466;7.260;2022-12-22T10:17:25;33.03;;;11.65;;
76892;SDS011;65854;51.466;7.260;2022-12-22T10:19:53;34.00;;;11.60;;
76892;SDS011;65854;51.466;7.260;2022-12-22T10:22:46;29.20;;;11.10;;
76892;SDS011;65854;51.466;7.260;2022-12-22T10:25:27;32.58;;;12.30;;
76892;SDS011;65854;51.466;7.260;2022-12-22T10:27:56;40.55;;;12.73;;
76892;SDS011;65854;51.466;7.260;2022-12-22T10:30:28;40.70;;;14.65;;
76892;SDS011;65854;51.466;7.260;2022-12-22T10:33:03;48.20;;;14.80;;
76892;SDS011;65854;51.466;7.260;2022-12-22T10:35:51;54.15;;;16.27;;
76892;SDS011;65854;51.466;7.260;2022-12-22T10:40:52;53.90;;;16.60;;
76892;SDS011;65854;51.466;7.260;2022-12-22T10:43:22;51.83;;;16.73;;
76892;SDS011;65854;51.466;7.260;2022-12-22T10:45:50;48.13;;;16.10;;
76892;SDS011;65854;51.466;7.260;2022-12-22T10:48:24;48.28;;;16.58;;
76892;SDS011;65854;51.466;7.260;2022-12-22T10:50:51;48.17;;;15.32;;
76892;SDS011;65854;51.466;7.260;2022-12-22T10:53:17;44.58;;;14.73;;
76892;SDS011;65854;51.466;7.260;2022-12-22T10:55:43;49.20;;;16.33;;
76892;SDS011;65854;51.466;7.260;2022-12-22T11:00:34;54.37;;;16.50;;
76892;SDS011;65854;51.466;7.260;2022-12-22T11:03:01;44.45;;;15.23;;
76892;SDS011;65854;51.466;7.260;2022-12-22T11:05:28;51.50;;;15.50;;
76892;SDS011;65854;51.466;7.260;2022-12-22T11:07:55;41.70;;;14.73;;
76892;SDS011;65854;51.466;7.260;2022-12-22T11:15:53;33.55;;;12.35;;
76892;SDS011;65854;51.466;7.260;2022-12-22T11:21:09;32.00;;;11.83;;
76892;SDS011;65854;51.466;7.260;2022-12-22T11:26:43;30.65;;;11.55;;
76892;SDS011;65854;51.466;7.260;2022-12-22T11:29:34;31.95;;;13.05;;
76892;SDS011;65854;51.466;7.260;2022-12-22T11:34:59;30.50;;;12.17;;
76892;SDS011;65854;51.466;7.260;2022-12-22T11:37:46;33.90;;;12.77;;
76892;SDS011;65854;51.466;7.260;2022-12-22T11:46:20;36.95;;;14.55;;
76892;SDS011;65854;51.466;7.260;2022-12-22T11:51:53;34.17;;;13.85;;
76892;SDS011;65854;51.466;7.260;2022-12-22T11:57:37;28.77;;;11.65;;
76892;SDS011;65854;51.466;7.260;2022-12-22T12:00:15;28.10;;;11.30;;
76892;SDS011;65854;51.466;7.260;2022-12-22T12:05:38;28.80;;;10.68;;
76892;SDS011;65854;51.466;7.260;2022-12-22T12:11:02;24.27;;;10.27;;
76892;SDS011;65854;51.466;7.260;2022-12-22T12:19:10;24.10;;;9.90;;
76892;SDS011;65854;51.466;7.260;2022-12-22T12:22:10;23.75;;;9.68;;
76892;SDS011;65854;51.466;7.260;2022-12-22T12:25:00;21.85;;;8.70;;
76892;SDS011;65854;51.466;7.260;2022-12-22T12:30:13;21.80;;;9.05;;
76892;SDS011;65854;51.466;7.260;2022-12-22T12:35:30;18.85;;;7.72;;
76892;SDS011;65854;51.466;7.260;2022-12-22T12:43:49;21.92;;;7.50;;
76892;SDS011;65854;51.466;7.260;2022-12-22T12:49:52;19.85;;;7.70;;
76892;SDS011;65854;51.466;7.260;2022-12-22T12:51:57;20.95;;;7.43;;
76892;SDS011;65854;51.466;7.260;2022-12-22T13:05:00;17.27;;;6.90;;
76892;SDS011;65854;51.466;7.260;2022-12-22T13:15:47;18.92;;;7.97;;
76892;SDS011;65854;51.466;7.260;2022-12-22T13:23:30;19.83;;;8.88;;
76892;SDS011;65854;51.466;7.260;2022-12-22T13:26:22;23.17;;;8.77;;
76892;SDS011;65854;51.466;7.260;2022-12-22T13:28:49;18.58;;;8.02;;
76892;SDS011;65854;51.466;7.260;2022-12-22T13:31:19;21.67;;;8.60;;
76892;SDS011;65854;51.466;7.260;2022-12-22T13:33:51;20.55;;;8.60;;
76892;SDS011;65854;51.466;7.260;2022-12-22T13:36:32;20.60;;;8.35;;
76892;SDS011;65854;51.466;7.260;2022-12-22T13:39:10;18.85;;;8.48;;
76892;SDS011;65854;51.466;7.260;2022-12-22T13:41:38;18.05;;;7.38;;
76892;SDS011;65854;51.466;7.260;2022-12-22T13:44:06;16.98;;;7.93;;
76892;SDS011;65854;51.466;7.260;2022-12-22T13:46:37;19.52;;;8.30;;
76892;SDS011;65854;51.466;7.260;2022-12-22T13:49:04;17.13;;;8.13;;
76892;SDS011;65854;51.466;7.260;2022-12-22T13:51:34;17.58;;;7.55;;
76892;SDS011;65854;51.466;7.260;2022-12-22T13:56:34;24.50;;;8.50;;
76892;SDS011;65854;51.466;7.260;2022-12-22T13:59:03;18.77;;;8.43;;
76892;SDS011;65854;51.466;7.260;2022-12-22T14:01:50;17.63;;;8.10;;
76892;SDS011;65854;51.466;7.260;2022-12-22T14:04:16;19.67;;;8.60;;
76892;SDS011;65854;51.466;7.260;2022-12-22T14:06:41;19.47;;;8.63;;
76892;SDS011;65854;51.466;7.260;2022-12-22T14:12:47;19.60;;;8.97;;
76892;SDS011;65854;51.466;7.260;2022-12-22T14:14:45;17.60;;;8.70;;
76892;SDS011;65854;51.466;7.260;2022-12-22T14:17:18;21.05;;;8.02;;
76892;SDS011;65854;51.466;7.260;2022-12-22T14:19:51;18.55;;;7.93;;
76892;SDS011;65854;51.466;7.260;2022-12-22T14:22:23;17.58;;;8.77;;
76892;SDS011;65854;51.466;7.260;2022-12-22T14:24:53;20.47;;;8.63;;
76892;SDS011;65854;51.466;7.260;2022-12-22T14:27:32;19.52;;;8.20;;
76892;SDS011;65854;51.466;7.260;2022-12-22T14:30:03;16.65;;;8.10;;
76892;SDS011;65854;51.466;7.260;2022-12-22T14:32:48;18.48;;;8.00;;
76892;SDS011;65854;51.466;7.260;2022-12-22T14:40:13;19.83;;;8.52;;
76892;SDS011;65854;51.466;7.260;2022-12-22T14:42:52;18.20;;;7.97;;
76892;SDS011;65854;51.466;7.260;2022-12-22T14:45:18;19.33;;;8.23;;
76892;SDS011;65854;51.466;7.260;2022-12-22T14:47:44;20.02;;;8.38;;
76892;SDS011;65854;51.466;7.260;2022-12-22T14:50:15;16.93;;;7.80;;
76892;SDS011;65854;51.466;7.260;2022-12-22T14:52:43;18.60;;;7.85;;
76892;SDS011;65854;51.466;7.260;2022-12-22T14:57:51;16.42;;;7.50;;
76892;SDS011;65854;51.466;7.260;2022-12-22T15:02:49;17.33;;;7.38;;
76892;SDS011;65854;51.466;7.260;2022-12-22T15:05:27;16.05;;;7.55;;
76892;SDS011;65854;51.466;7.260;2022-12-22T15:08:04;18.25;;;7.50;;
76892;SDS011;65854;51.466;7.260;2022-12-22T15:10:36;18.10;;;7.53;;
76892;SDS011;65854;51.466;7.260;2022-12-22T15:13:06;17.70;;;7.60;;
76892;SDS011;65854;51.466;7.260;2022-12-22T15:15:40;15.40;;;6.82;;
76892;SDS011;65854;51.466;7.260;2022-12-22T15:18:10;17.83;;;7.53;;
76892;SDS011;65854;51.466;7.260;2022-12-22T15:20:38;14.20;;;6.65;;
76892;SDS011;65854;51.466;7.260;2022-12-22T15:23:08;17.98;;;7.47;;
76892;SDS011;65854;51.466;7.260;2022-12-22T15:25:38;19.13;;;7.88;;
76892;SDS011;65854;51.466;7.260;2022-12-22T15:28:04;16.57;;;7.20;;
76892;SDS011;65854;51.466;7.260;2022-12-22T15:30:29;18.17;;;8.05;;
76892;SDS011;65854;51.466;7.260;2022-12-22T15:32:55;16.67;;;6.97;;
76892;SDS011;65854;51.466;7.260;2022-12-22T15:35:28;19.20;;;8.02;;
76892;SDS011;65854;51.466;7.260;2022-12-22T15:37:56;18.13;;;7.93;;
76892;SDS011;65854;51.466;7.260;2022-12-22T15:40:22;16.75;;;7.80;;
76892;SDS011;65854;51.466;7.260;2022-12-22T15:42:48;15.38;;;7.10;;
76892;SDS011;65854;51.466;7.260;2022-12-22T15:45:15;15.98;;;7.93;;
76892;SDS011;65854;51.466;7.260;2022-12-22T15:47:42;16.58;;;7.28;;
76892;SDS011;65854;51.466;7.260;2022-12-22T15:50:13;15.15;;;7.25;;
76892;SDS011;65854;51.466;7.260;2022-12-22T15:53:00;17.77;;;7.43;;
76892;SDS011;65854;51.466;7.260;2022-12-22T15:55:27;16.98;;;7.38;;
76892;SDS011;65854;51.466;7.260;2022-12-22T15:57:54;17.10;;;7.10;;
76892;SDS011;65854;51.466;7.260;2022-12-22T16:00:21;15.90;;;7.20;;
76892;SDS011;65854;51.466;7.260;2022-12-22T16:02:47;15.65;;;7.38;;
76892;SDS011;65854;51.466;7.260;2022-12-22T16:05:13;16.67;;;7.38;;
76892;SDS011;65854;51.466;7.260;2022-12-22T16:07:40;18.63;;;7.50;;
76892;SDS011;65854;51.466;7.260;2022-12-22T16:10:07;16.75;;;7.70;;
76892;SDS011;65854;51.466;7.260;2022-12-22T16:12:47;16.27;;;6.78;;
76892;SDS011;65854;51.466;7.260;2022-12-22T16:15:18;15.23;;;6.78;;
76892;SDS011;65854;51.466;7.260;2022-12-22T16:17:44;17.35;;;7.93;;
76892;SDS011;65854;51.466;7.260;2022-12-22T16:20:10;15.17;;;6.60;;
76892;SDS011;65854;51.466;7.260;2022-12-22T16:22:36;16.77;;;7.13;;
76892;SDS011;65854;51.466;7.260;2022-12-22T16:25:03;15.73;;;6.93;;
76892;SDS011;65854;51.466;7.260;2022-12-22T16:27:35;14.20;;;6.43;;
76892;SDS011;65854;51.466;7.260;2022-12-22T16:30:01;17.20;;;7.38;;
76892;SDS011;65854;51.466;7.260;2022-12-22T16:32:28;14.15;;;6.57;;
76892;SDS011;65854;51.466;7.260;2022-12-22T16:37:33;15.27;;;7.13;;
76892;SDS011;65854;51.466;7.260;2022-12-22T16:39:59;15.60;;;7.22;;
76892;SDS011;65854;51.466;7.260;2022-12-22T16:42:24;16.80;;;7.40;;
76892;SDS011;65854;51.466;7.260;2022-12-22T16:44:50;15.32;;;7.30;;
76892;SDS011;65854;51.466;7.260;2022-12-22T16:47:20;16.40;;;7.38;;
76892;SDS011;65854;51.466;7.260;2022-12-22T16:49:49;16.00;;;7.65;;
76892;SDS011;65854;51.466;7.260;2022-12-22T16:52:22;18.48;;;7.57;;
76892;SDS011;65854;51.466;7.260;2022-12-22T16:54:54;18.42;;;7.35;;
76892;SDS011;65854;51.466;7.260;2022-12-22T16:57:20;22.17;;;9.38;;
76892;SDS011;65854;51.466;7.260;2022-12-22T16:59:45;18.70;;;7.47;;
76892;SDS011;65854;51.466;7.260;2022-12-22T17:02:16;19.57;;;7.67;;
76892;SDS011;65854;51.466;7.260;2022-12-22T17:04:46;18.48;;;7.50;;
76892;SDS011;65854;51.466;7.260;2022-12-22T17:07:12;18.08;;;8.05;;